createdAt,value
2018-12-31T00:01:19.677Z,94.60
2018-12-31T00:03:51.016Z,94.60
2018-12-31T00:06:22.067Z,94.60
2018-12-31T00:08:52.948Z,94.60
2018-12-31T00:11:23.733Z,94.50
2018-12-31T00:13:54.657Z,94.60
2018-12-31T00:16:25.571Z,94.60
2018-12-31T00:18:56.148Z,94.60
2018-12-31T00:21:27.226Z,94.60
2018-12-31T00:23:59.634Z,94.50
2018-12-31T00:26:30.633Z,94.60
2018-12-31T00:29:01.255Z,94.50
2018-12-31T00:31:31.830Z,94.60
2018-12-31T00:34:02.859Z,94.70
2018-12-31T00:36:33.414Z,94.70
2018-12-31T00:39:04.419Z,94.70
2018-12-31T00:41:34.992Z,94.60
2018-12-31T00:44:05.607Z,94.70
2018-12-31T00:46:36.201Z,94.60
2018-12-31T00:49:06.770Z,94.60
2018-12-31T00:51:37.359Z,94.70
2018-12-31T00:54:08.964Z,94.70
2018-12-31T00:56:40.934Z,94.80
2018-12-31T00:59:11.648Z,94.60
2018-12-31T01:01:42.268Z,94.70
2018-12-31T01:04:14.493Z,94.70
2018-12-31T01:06:45.713Z,94.70
2018-12-31T01:09:31.273Z,94.70
2018-12-31T01:12:02.373Z,94.70
2018-12-31T01:14:33.479Z,94.70
2018-12-31T01:17:04.617Z,94.80
2018-12-31T01:19:35.766Z,94.80
2018-12-31T01:22:06.905Z,94.70
2018-12-31T01:24:38.279Z,94.80
2018-12-31T01:27:09.406Z,94.70
2018-12-31T01:29:40.170Z,94.80
2018-12-31T01:32:10.967Z,94.70
2018-12-31T01:34:41.946Z,94.90
2018-12-31T01:37:12.741Z,94.80
2018-12-31T01:39:43.509Z,94.90
2018-12-31T01:42:14.641Z,94.80
2018-12-31T01:44:45.744Z,94.70
2018-12-31T01:47:16.599Z,95.00
2018-12-31T01:49:47.472Z,94.80
2018-12-31T01:52:18.352Z,94.90
2018-12-31T01:54:49.619Z,94.80
2018-12-31T01:57:20.842Z,94.90
2018-12-31T01:59:51.674Z,95.00
2018-12-31T02:02:22.580Z,94.90
2018-12-31T02:04:53.381Z,94.90
2018-12-31T02:07:24.621Z,95.00
2018-12-31T02:09:55.781Z,94.90
2018-12-31T02:12:26.336Z,94.90
2018-12-31T02:14:57.147Z,95.00
2018-12-31T02:17:27.722Z,95.00
2018-12-31T02:19:58.291Z,95.10
2018-12-31T02:22:28.867Z,95.10
2018-12-31T02:24:59.427Z,95.10
2018-12-31T02:27:30.031Z,95.20
2018-12-31T02:30:00.576Z,95.30
2018-12-31T02:32:31.213Z,95.20
2018-12-31T02:35:01.811Z,95.10
2018-12-31T02:37:32.401Z,95.20
2018-12-31T02:40:04.379Z,95.00
2018-12-31T02:42:34.971Z,95.00
2018-12-31T02:45:07.703Z,95.20
2018-12-31T02:47:38.308Z,95.20
2018-12-31T02:50:08.855Z,95.30
2018-12-31T02:52:39.362Z,95.30
2018-12-31T02:55:09.933Z,95.30
2018-12-31T02:57:40.511Z,95.20
2018-12-31T03:00:11.106Z,95.20
2018-12-31T03:02:41.668Z,95.40
2018-12-31T03:05:12.268Z,95.30
2018-12-31T03:07:42.837Z,95.30
2018-12-31T03:10:13.478Z,95.30
2018-12-31T03:12:44.106Z,95.30
2018-12-31T03:15:14.783Z,95.60
2018-12-31T03:17:45.320Z,95.30
2018-12-31T03:20:15.911Z,95.40
2018-12-31T03:22:48.240Z,95.40
2018-12-31T03:25:19.082Z,95.40
2018-12-31T03:27:50.352Z,95.40
2018-12-31T03:30:21.486Z,95.40
2018-12-31T03:32:52.076Z,95.40
2018-12-31T03:35:22.945Z,95.40
2018-12-31T03:37:53.763Z,95.40
2018-12-31T03:40:25.037Z,95.40
2018-12-31T03:42:55.863Z,95.50
2018-12-31T03:45:26.736Z,95.40
2018-12-31T03:47:57.517Z,95.40
2018-12-31T03:50:28.521Z,95.50
2018-12-31T03:52:59.310Z,95.50
2018-12-31T03:55:30.089Z,95.50
2018-12-31T03:58:00.914Z,95.40
2018-12-31T04:00:34.435Z,95.60
2018-12-31T04:03:05.039Z,95.40
2018-12-31T04:05:35.604Z,95.50
2018-12-31T04:08:06.321Z,95.40
2018-12-31T04:10:36.942Z,95.50
2018-12-31T04:13:08.126Z,95.40
2018-12-31T04:15:38.807Z,95.40
2018-12-31T04:18:09.371Z,95.50
2018-12-31T04:20:40.227Z,95.50
2018-12-31T04:23:10.825Z,95.60
2018-12-31T04:25:41.387Z,95.50
2018-12-31T04:28:11.982Z,95.50
2018-12-31T04:30:42.578Z,95.50
2018-12-31T04:33:13.209Z,95.60
2018-12-31T04:35:43.731Z,95.50
2018-12-31T04:38:14.377Z,95.60
2018-12-31T04:40:44.993Z,95.50
2018-12-31T04:43:15.638Z,95.50
2018-12-31T04:45:46.261Z,95.50
2018-12-31T04:48:16.881Z,95.50
2018-12-31T04:50:47.467Z,95.40
2018-12-31T04:53:18.054Z,95.50
2018-12-31T04:55:48.681Z,95.60
2018-12-31T04:58:23.298Z,95.60
2018-12-31T05:00:51.475Z,95.50
2018-12-31T05:03:22.776Z,95.50
2018-12-31T05:05:53.330Z,95.50
2018-12-31T05:08:23.918Z,95.70
2018-12-31T05:10:54.522Z,95.70
2018-12-31T05:13:25.102Z,95.70
2018-12-31T05:15:55.710Z,95.70
2018-12-31T05:18:26.281Z,95.80
2018-12-31T05:20:56.898Z,95.70
2018-12-31T05:23:27.475Z,95.70
2018-12-31T05:25:58.686Z,95.80
2018-12-31T05:28:29.254Z,95.80
2018-12-31T05:30:59.871Z,95.80
2018-12-31T05:33:30.424Z,96.10
2018-12-31T05:36:01.088Z,95.80
2018-12-31T05:38:31.583Z,96.40
2018-12-31T05:41:02.238Z,96.30
2018-12-31T05:43:32.850Z,96.60
2018-12-31T05:46:03.813Z,96.50
2018-12-31T05:48:34.391Z,96.70
2018-12-31T05:51:05.319Z,96.60
2018-12-31T05:53:36.078Z,98.10
2018-12-31T05:56:07.315Z,97.50
2018-12-31T05:58:38.077Z,97.00
2018-12-31T06:01:09.178Z,97.20
2018-12-31T06:03:39.955Z,96.90
2018-12-31T06:06:10.736Z,96.80
2018-12-31T06:08:41.623Z,96.70
2018-12-31T06:11:12.608Z,96.60
2018-12-31T06:13:43.427Z,96.80
2018-12-31T06:16:14.308Z,96.70
2018-12-31T06:18:45.071Z,96.70
2018-12-31T06:21:15.827Z,96.70
2018-12-31T06:23:47.029Z,96.70
2018-12-31T06:26:18.023Z,96.70
2018-12-31T06:28:48.707Z,97.00
2018-12-31T06:31:19.193Z,96.90
2018-12-31T06:33:49.796Z,97.00
2018-12-31T06:36:20.999Z,97.00
2018-12-31T06:38:52.451Z,96.90
2018-12-31T06:41:23.661Z,97.00
2018-12-31T06:43:54.278Z,96.80
2018-12-31T06:46:24.823Z,96.80
2018-12-31T06:48:55.438Z,96.80
2018-12-31T06:51:26.183Z,96.80
2018-12-31T06:53:56.932Z,96.60
2018-12-31T06:56:27.719Z,96.40
2018-12-31T06:58:58.693Z,96.40
2018-12-31T07:01:29.526Z,96.50
2018-12-31T07:04:00.487Z,96.50
2018-12-31T07:06:31.399Z,96.30
2018-12-31T07:09:02.286Z,96.40
2018-12-31T07:11:32.995Z,96.40
2018-12-31T07:14:03.817Z,96.40
2018-12-31T07:16:34.706Z,96.60
2018-12-31T07:19:05.401Z,96.70
2018-12-31T07:21:36.174Z,96.80
2018-12-31T07:24:07.301Z,96.60
2018-12-31T07:26:38.805Z,96.70
2018-12-31T07:29:09.305Z,96.50
2018-12-31T07:31:39.784Z,96.40
2018-12-31T07:34:10.419Z,96.50
2018-12-31T07:36:41.080Z,96.60
2018-12-31T07:39:11.636Z,96.60
2018-12-31T07:41:42.224Z,96.60
2018-12-31T07:44:13.204Z,96.50
2018-12-31T07:46:43.937Z,96.70
2018-12-31T07:49:14.770Z,96.80
2018-12-31T07:51:45.652Z,96.70
2018-12-31T07:54:16.588Z,96.80
2018-12-31T07:56:47.858Z,96.80
2018-12-31T07:59:18.691Z,96.70
2018-12-31T08:01:49.563Z,96.90
2018-12-31T08:04:20.427Z,96.70
2018-12-31T08:06:51.612Z,97.00
2018-12-31T08:09:22.955Z,96.50
2018-12-31T08:11:54.100Z,96.70
2018-12-31T08:14:25.612Z,96.30
2018-12-31T08:16:56.285Z,96.30
2018-12-31T08:19:27.299Z,96.30
2018-12-31T08:21:58.087Z,96.40
2018-12-31T08:24:29.066Z,96.60
2018-12-31T08:27:00.470Z,96.50
2018-12-31T08:29:31.535Z,96.40
2018-12-31T08:32:04.602Z,96.40
2018-12-31T08:34:42.045Z,96.20
2018-12-31T08:37:10.756Z,96.20
2018-12-31T08:39:42.109Z,96.90
2018-12-31T08:42:13.343Z,96.70
2018-12-31T08:44:44.193Z,96.20
2018-12-31T08:47:15.100Z,96.10
2018-12-31T08:49:45.893Z,96.40
2018-12-31T08:52:18.170Z,96.10
2018-12-31T08:54:48.809Z,96.50
2018-12-31T08:57:22.092Z,96.60
2018-12-31T08:59:52.041Z,96.00
2018-12-31T09:02:22.935Z,96.00
2018-12-31T09:04:54.119Z,96.00
2018-12-31T09:07:25.927Z,96.10
2018-12-31T09:09:56.537Z,96.00
2018-12-31T09:12:27.165Z,96.40
2018-12-31T09:14:57.752Z,96.40
2018-12-31T09:17:28.788Z,96.00
2018-12-31T09:19:59.497Z,96.20
2018-12-31T09:22:30.308Z,95.90
2018-12-31T09:25:01.552Z,96.10
2018-12-31T09:27:32.318Z,96.10
2018-12-31T09:30:03.089Z,96.10
2018-12-31T09:32:34.317Z,95.90
2018-12-31T09:35:05.176Z,95.80
2018-12-31T09:37:36.165Z,95.80
2018-12-31T09:40:07.007Z,95.90
2018-12-31T09:42:37.784Z,95.70
2018-12-31T09:45:08.678Z,96.00
2018-12-31T09:47:39.895Z,96.10
2018-12-31T09:50:10.908Z,95.80
2018-12-31T09:52:41.847Z,95.70
2018-12-31T09:55:12.689Z,95.90
2018-12-31T09:57:43.592Z,95.90
2018-12-31T10:00:14.413Z,95.70
2018-12-31T10:02:45.198Z,95.60
2018-12-31T10:05:15.995Z,95.70
2018-12-31T10:07:46.774Z,95.60
2018-12-31T10:10:17.701Z,95.60
2018-12-31T10:12:48.650Z,95.50
2018-12-31T10:15:19.422Z,95.50
2018-12-31T10:17:50.364Z,95.80
2018-12-31T10:20:22.675Z,95.70
2018-12-31T10:22:53.916Z,95.60
2018-12-31T10:25:24.773Z,95.50
2018-12-31T10:27:57.606Z,95.70
2018-12-31T10:30:28.814Z,95.40
2018-12-31T10:32:59.579Z,95.60
2018-12-31T10:35:30.592Z,95.50
2018-12-31T10:38:01.741Z,95.50
2018-12-31T10:40:33.601Z,95.50
2018-12-31T10:43:04.822Z,95.40
2018-12-31T10:45:35.779Z,95.40
2018-12-31T10:48:06.751Z,95.60
2018-12-31T10:50:37.597Z,95.50
2018-12-31T10:53:08.565Z,95.60
2018-12-31T10:55:39.609Z,95.60
2018-12-31T10:58:10.429Z,95.50
2018-12-31T11:00:41.242Z,95.50
2018-12-31T11:03:12.139Z,95.50
2018-12-31T11:05:42.912Z,95.50
2018-12-31T11:08:15.963Z,95.40
2018-12-31T11:10:46.554Z,95.30
2018-12-31T11:13:17.226Z,95.20
2018-12-31T11:15:48.002Z,95.30
2018-12-31T11:18:18.726Z,95.20
2018-12-31T11:20:49.747Z,95.40
2018-12-31T11:23:23.091Z,95.30
2018-12-31T11:25:53.817Z,95.10
2018-12-31T11:28:24.505Z,95.20
2018-12-31T11:30:55.118Z,95.00
2018-12-31T11:33:25.858Z,95.20
2018-12-31T11:35:56.498Z,95.20
2018-12-31T11:38:27.572Z,95.30
2018-12-31T11:40:59.044Z,95.20
2018-12-31T11:43:29.640Z,97.70
2018-12-31T11:46:00.213Z,99.30
2018-12-31T11:48:31.215Z,98.90
2018-12-31T11:51:02.311Z,98.60
2018-12-31T11:53:33.104Z,98.30
2018-12-31T11:56:03.980Z,98.20
2018-12-31T11:58:35.142Z,98.20
2018-12-31T12:01:06.494Z,97.90
2018-12-31T12:03:37.639Z,97.50
2018-12-31T12:06:08.882Z,97.20
2018-12-31T12:08:40.333Z,97.20
2018-12-31T12:11:11.034Z,97.20
2018-12-31T12:13:42.208Z,97.10
2018-12-31T12:16:16.530Z,97.10
2018-12-31T12:18:47.196Z,97.10
2018-12-31T12:21:19.663Z,96.90
2018-12-31T12:23:50.251Z,97.10
2018-12-31T12:26:20.808Z,97.10
2018-12-31T12:28:51.923Z,97.00
2018-12-31T12:31:23.187Z,96.90
2018-12-31T12:33:54.425Z,97.00
2018-12-31T12:36:25.690Z,96.90
2018-12-31T12:38:56.703Z,96.90
2018-12-31T12:41:27.605Z,97.00
2018-12-31T12:43:58.670Z,96.90
2018-12-31T12:46:29.634Z,96.90
2018-12-31T12:49:00.569Z,96.80
2018-12-31T12:51:31.815Z,96.90
2018-12-31T12:54:02.626Z,96.80
2018-12-31T12:56:34.300Z,96.80
2018-12-31T12:59:05.624Z,96.90
2018-12-31T13:01:36.426Z,96.70
2018-12-31T13:04:07.203Z,96.80
2018-12-31T13:06:38.154Z,96.90
2018-12-31T13:09:09.051Z,97.40
2018-12-31T13:11:40.051Z,97.00
2018-12-31T13:14:12.206Z,96.90
2018-12-31T13:16:43.331Z,97.00
2018-12-31T13:19:14.901Z,97.00
2018-12-31T13:21:46.614Z,97.10
2018-12-31T13:24:18.932Z,97.10
2018-12-31T13:26:50.323Z,97.10
2018-12-31T13:29:21.044Z,97.20
2018-12-31T13:31:51.935Z,97.20
2018-12-31T13:34:22.691Z,97.20
2018-12-31T13:36:53.445Z,97.10
2018-12-31T13:39:25.207Z,97.10
2018-12-31T13:41:56.435Z,97.10
2018-12-31T13:44:27.870Z,97.00
2018-12-31T13:46:58.641Z,97.00
2018-12-31T13:49:29.730Z,97.10
2018-12-31T13:52:00.518Z,96.90
2018-12-31T13:54:31.498Z,97.10
2018-12-31T13:57:02.496Z,96.90
2018-12-31T13:59:33.607Z,97.10
2018-12-31T14:02:05.621Z,97.10
2018-12-31T14:04:36.809Z,97.00
2018-12-31T14:07:08.154Z,97.00
2018-12-31T14:09:39.143Z,97.00
2018-12-31T14:12:10.307Z,97.00
2018-12-31T14:14:41.581Z,97.00
2018-12-31T14:17:13.049Z,97.10
2018-12-31T14:19:44.826Z,97.10
2018-12-31T14:22:15.725Z,97.10
2018-12-31T14:24:46.645Z,97.10
2018-12-31T14:27:17.546Z,97.10
2018-12-31T14:29:48.412Z,97.10
2018-12-31T14:32:19.212Z,97.20
2018-12-31T14:34:50.080Z,97.20
2018-12-31T14:37:23.641Z,97.20
2018-12-31T14:39:54.449Z,97.20
2018-12-31T14:42:25.707Z,97.30
2018-12-31T14:44:56.943Z,97.20
2018-12-31T14:47:27.855Z,97.20
2018-12-31T14:49:58.660Z,97.30
2018-12-31T14:52:30.124Z,97.40
2018-12-31T14:55:00.948Z,97.30
2018-12-31T14:57:32.251Z,97.30
2018-12-31T15:00:03.044Z,97.30
2018-12-31T15:02:33.814Z,97.40
2018-12-31T15:05:05.215Z,97.60
2018-12-31T15:07:36.623Z,97.40
2018-12-31T15:10:08.196Z,97.50
2018-12-31T15:12:39.619Z,97.50
2018-12-31T15:15:10.541Z,97.60
2018-12-31T15:17:41.503Z,97.50
2018-12-31T15:20:12.376Z,97.50
2018-12-31T15:22:43.580Z,97.50
2018-12-31T15:25:14.606Z,97.40
2018-12-31T15:27:45.439Z,97.50
2018-12-31T15:30:16.383Z,97.50
2018-12-31T15:32:47.381Z,97.40
2018-12-31T15:35:18.261Z,97.40
2018-12-31T15:37:49.205Z,97.50
2018-12-31T15:40:20.177Z,97.50
2018-12-31T15:42:51.162Z,97.40
2018-12-31T15:45:22.069Z,97.50
2018-12-31T15:47:53.369Z,97.50
2018-12-31T15:50:24.277Z,97.60
2018-12-31T15:52:55.164Z,97.60
2018-12-31T15:55:26.290Z,97.50
2018-12-31T15:57:57.435Z,97.50
2018-12-31T16:00:28.266Z,97.50
2018-12-31T16:02:59.342Z,97.50
2018-12-31T16:05:30.162Z,97.50
2018-12-31T16:08:01.123Z,97.50
2018-12-31T16:10:32.538Z,97.50
2018-12-31T16:13:04.802Z,97.50
2018-12-31T16:15:35.827Z,97.60
2018-12-31T16:18:08.000Z,97.60
2018-12-31T16:20:39.775Z,97.60
2018-12-31T16:23:10.609Z,97.60
2018-12-31T16:25:41.533Z,97.60
2018-12-31T16:28:12.795Z,97.60
2018-12-31T16:30:43.938Z,97.70
2018-12-31T16:33:15.394Z,97.60
2018-12-31T16:35:46.610Z,97.60
2018-12-31T16:38:17.772Z,97.70
2018-12-31T16:40:48.713Z,97.60
2018-12-31T16:43:19.842Z,97.60
2018-12-31T16:45:51.006Z,97.60
2018-12-31T16:48:21.900Z,97.70
2018-12-31T16:50:55.992Z,97.70
2018-12-31T16:53:27.248Z,97.60
2018-12-31T16:55:58.120Z,97.60
2018-12-31T16:58:29.359Z,97.60
2018-12-31T17:01:00.469Z,97.60
2018-12-31T17:03:31.186Z,97.60
2018-12-31T17:06:01.760Z,97.60
2018-12-31T17:08:32.912Z,97.60
2018-12-31T17:11:03.868Z,97.60
2018-12-31T17:13:34.942Z,97.60
2018-12-31T17:16:06.202Z,97.60
2018-12-31T17:18:37.493Z,97.60
2018-12-31T17:21:08.414Z,97.60
2018-12-31T17:23:39.202Z,97.60
2018-12-31T17:26:09.893Z,97.60
2018-12-31T17:28:40.607Z,97.60
2018-12-31T17:31:11.776Z,97.60
2018-12-31T17:33:42.564Z,97.60
2018-12-31T17:36:13.861Z,97.60
2018-12-31T17:38:44.843Z,97.50
2018-12-31T17:41:15.765Z,97.60
2018-12-31T17:43:46.557Z,97.50
2018-12-31T17:46:17.430Z,97.50
2018-12-31T17:48:48.323Z,97.50
2018-12-31T17:51:19.126Z,97.50
2018-12-31T17:53:49.909Z,97.50
2018-12-31T17:56:20.800Z,97.50
2018-12-31T17:58:52.169Z,97.50
2018-12-31T18:01:23.557Z,97.60
2018-12-31T18:03:54.450Z,97.60
2018-12-31T18:06:25.269Z,97.40
2018-12-31T18:08:56.470Z,97.60
2018-12-31T18:11:27.297Z,97.60
2018-12-31T18:13:58.190Z,97.70
2018-12-31T18:16:29.249Z,97.60
2018-12-31T18:19:00.088Z,97.60
2018-12-31T18:21:31.025Z,97.70
2018-12-31T18:24:01.959Z,97.70
2018-12-31T18:26:32.765Z,97.70
2018-12-31T18:29:03.548Z,97.70
2018-12-31T18:31:34.797Z,97.80
2018-12-31T18:34:06.133Z,97.80
2018-12-31T18:36:36.969Z,97.80
2018-12-31T18:39:08.970Z,97.80
2018-12-31T18:41:40.298Z,97.80
2018-12-31T18:44:11.175Z,97.80
2018-12-31T18:46:42.131Z,97.80
2018-12-31T18:49:12.850Z,97.90
2018-12-31T18:51:43.956Z,97.90
2018-12-31T18:54:15.104Z,97.90
2018-12-31T18:56:46.454Z,97.90
2018-12-31T18:59:17.454Z,97.90
2018-12-31T19:01:48.533Z,97.90
2018-12-31T19:04:19.653Z,97.80
2018-12-31T19:06:50.437Z,97.80
2018-12-31T19:09:21.330Z,97.90
2018-12-31T19:11:52.006Z,97.90
2018-12-31T19:14:23.006Z,97.90
2018-12-31T19:16:53.676Z,97.90
2018-12-31T19:19:25.310Z,98.00
2018-12-31T19:21:56.444Z,98.00
2018-12-31T19:24:27.359Z,98.00
2018-12-31T19:26:58.527Z,97.90
2018-12-31T19:29:29.331Z,97.90
2018-12-31T19:32:00.245Z,98.00
2018-12-31T19:34:31.342Z,97.90
2018-12-31T19:37:02.187Z,98.00
2018-12-31T19:39:33.195Z,98.00
2018-12-31T19:42:04.039Z,98.00
2018-12-31T19:44:34.922Z,98.00
2018-12-31T19:47:06.021Z,98.00
2018-12-31T19:49:36.801Z,98.10
2018-12-31T19:52:07.891Z,98.00
2018-12-31T19:54:39.052Z,98.10
2018-12-31T19:57:10.050Z,97.90
2018-12-31T19:59:41.341Z,97.90
2018-12-31T20:02:12.484Z,97.90
2018-12-31T20:04:43.632Z,97.90
2018-12-31T20:07:14.754Z,97.80
2018-12-31T20:09:45.737Z,97.80
2018-12-31T20:12:16.855Z,97.90
2018-12-31T20:14:48.067Z,97.80
2018-12-31T20:17:19.324Z,97.80
2018-12-31T20:19:51.640Z,97.80
2018-12-31T20:22:22.684Z,97.80
2018-12-31T20:24:53.416Z,97.70
2018-12-31T20:27:24.714Z,97.90
2018-12-31T20:29:55.533Z,97.80
2018-12-31T20:32:26.681Z,97.80
2018-12-31T20:34:57.970Z,97.80
2018-12-31T20:37:28.592Z,97.80
2018-12-31T20:39:59.451Z,97.70
2018-12-31T20:42:30.617Z,97.80
2018-12-31T20:45:01.720Z,97.80
2018-12-31T20:47:32.893Z,97.80
2018-12-31T20:50:04.211Z,97.80
2018-12-31T20:52:35.073Z,97.80
2018-12-31T20:55:06.167Z,97.80
2018-12-31T20:57:37.047Z,97.80
2018-12-31T21:00:08.872Z,97.80
2018-12-31T21:02:40.121Z,97.70
2018-12-31T21:05:11.544Z,97.70
2018-12-31T21:07:42.500Z,97.80
2018-12-31T21:10:13.432Z,97.80
2018-12-31T21:12:44.465Z,97.80
2018-12-31T21:15:16.337Z,97.80
2018-12-31T21:17:47.603Z,97.80
2018-12-31T21:20:18.755Z,97.80
2018-12-31T21:22:50.237Z,97.80
2018-12-31T21:25:21.069Z,97.80
2018-12-31T21:27:51.903Z,97.80
2018-12-31T21:30:22.889Z,97.80
2018-12-31T21:32:54.054Z,97.80
2018-12-31T21:35:25.190Z,97.80
2018-12-31T21:37:56.434Z,97.70
2018-12-31T21:40:28.258Z,97.70
2018-12-31T21:42:59.730Z,97.60
2018-12-31T21:45:30.653Z,97.70
2018-12-31T21:48:01.455Z,97.60
2018-12-31T21:50:32.771Z,98.00
2018-12-31T21:53:03.546Z,97.60
2018-12-31T21:55:34.448Z,97.70
2018-12-31T21:58:05.403Z,97.70
2018-12-31T22:00:36.723Z,97.70
2018-12-31T22:03:07.642Z,97.70
2018-12-31T22:05:38.548Z,97.70
2018-12-31T22:08:09.649Z,97.60
2018-12-31T22:10:41.425Z,97.60
2018-12-31T22:13:12.215Z,97.60
2018-12-31T22:15:43.121Z,97.60
2018-12-31T22:18:14.079Z,97.60
2018-12-31T22:20:45.107Z,97.60
2018-12-31T22:23:16.296Z,97.50
2018-12-31T22:25:47.067Z,97.60
2018-12-31T22:28:17.849Z,97.60
2018-12-31T22:30:49.019Z,97.60
2018-12-31T22:33:19.894Z,97.50
2018-12-31T22:35:51.101Z,97.50
2018-12-31T22:38:22.525Z,97.50
2018-12-31T22:40:53.430Z,97.50
2018-12-31T22:43:24.191Z,97.40
2018-12-31T22:45:55.095Z,97.40
2018-12-31T22:48:25.972Z,97.40
2018-12-31T22:50:57.145Z,97.40
2018-12-31T22:53:28.490Z,97.40
2018-12-31T22:55:59.731Z,97.30
2018-12-31T22:58:31.075Z,97.30
2018-12-31T23:01:02.131Z,97.60
2018-12-31T23:03:32.987Z,97.30
2018-12-31T23:06:04.091Z,97.30
2018-12-31T23:08:35.544Z,97.30
2018-12-31T23:11:06.313Z,96.90
2018-12-31T23:13:37.732Z,97.00
2018-12-31T23:16:08.835Z,97.10
2018-12-31T23:18:39.733Z,97.10
2018-12-31T23:21:10.634Z,97.10
2018-12-31T23:23:41.556Z,97.10
2018-12-31T23:26:12.341Z,97.10
2018-12-31T23:28:43.667Z,97.10
2018-12-31T23:31:14.811Z,97.10
2018-12-31T23:33:45.981Z,97.10
2018-12-31T23:36:16.751Z,97.10
2018-12-31T23:38:47.702Z,97.10
2018-12-31T23:41:19.074Z,97.10
2018-12-31T23:43:49.991Z,97.10
2018-12-31T23:46:21.526Z,97.00
2018-12-31T23:48:52.551Z,97.00
2018-12-31T23:51:23.436Z,97.00
2018-12-31T23:53:54.372Z,97.00
2018-12-31T23:56:25.320Z,97.00
2018-12-31T23:58:56.249Z,97.00
